createdAt,value
2023-04-07T00:00:52.065Z,10.58
2023-04-07T00:01:52.070Z,10.58
2023-04-07T00:02:52.096Z,10.38
2023-04-07T00:03:52.231Z,10.28
2023-04-07T00:04:52.037Z,10.79
2023-04-07T00:05:51.979Z,10.38
2023-04-07T00:06:51.960Z,10.49
2023-04-07T00:07:56.523Z,10.17
2023-04-07T00:08:52.934Z,10.49
2023-04-07T00:09:51.943Z,10.58
2023-04-07T00:10:51.904Z,10.49
2023-04-07T00:11:51.907Z,10.17
2023-04-07T00:12:51.890Z,10.07
2023-04-07T00:13:52.217Z,9.97
2023-04-07T00:14:51.900Z,9.87
2023-04-07T00:15:51.892Z,10.27
2023-04-07T00:16:51.829Z,10.38
2023-04-07T00:17:51.852Z,10.06
2023-04-07T00:18:51.802Z,10.06
2023-04-07T00:19:51.821Z,10.06
2023-04-07T00:20:51.768Z,10.06
2023-04-07T00:21:51.763Z,10.17
2023-04-07T00:22:51.761Z,10.17
2023-04-07T00:23:51.734Z,10.68
2023-04-07T00:24:51.738Z,10.17
2023-04-07T00:25:51.704Z,9.86
2023-04-07T00:26:51.692Z,10.27
2023-04-07T00:27:51.684Z,10.17
2023-04-07T00:28:51.663Z,10.27
2023-04-07T00:29:51.749Z,10.48
2023-04-07T00:30:51.674Z,10.78
2023-04-07T00:31:51.651Z,10.27
2023-04-07T00:32:51.722Z,10.17
2023-04-07T00:33:51.603Z,10.38
2023-04-07T00:34:51.612Z,10.38
2023-04-07T00:35:51.599Z,10.58
2023-04-07T00:36:51.555Z,10.78
2023-04-07T00:37:51.562Z,10.58
2023-04-07T00:38:51.542Z,10.27
2023-04-07T00:39:51.543Z,10.16
2023-04-07T00:40:51.510Z,10.48
2023-04-07T00:41:51.524Z,10.58
2023-04-07T00:42:51.473Z,10.78
2023-04-07T00:43:51.673Z,10.58
2023-04-07T00:44:51.505Z,10.38
2023-04-07T00:45:51.446Z,10.27
2023-04-07T00:46:51.463Z,10.99
2023-04-07T00:47:51.479Z,10.38
2023-04-07T00:48:51.417Z,10.78
2023-04-07T00:49:51.419Z,10.68
2023-04-07T00:50:51.383Z,10.89
2023-04-07T00:51:51.363Z,10.48
2023-04-07T00:52:51.350Z,10.37
2023-04-07T00:53:51.335Z,10.68
2023-04-07T00:54:51.339Z,10.47
2023-04-07T00:55:51.312Z,10.37
2023-04-07T00:56:51.309Z,10.27
2023-04-07T00:57:51.278Z,10.58
2023-04-07T00:58:51.265Z,10.58
2023-04-07T00:59:51.276Z,10.47
2023-04-07T01:00:51.235Z,10.47
2023-04-07T01:01:51.336Z,10.16
2023-04-07T01:02:51.377Z,10.68
2023-04-07T01:03:51.339Z,10.47
2023-04-07T01:04:51.410Z,10.47
2023-04-07T01:05:51.178Z,10.78
2023-04-07T01:06:51.167Z,9.96
2023-04-07T01:07:51.157Z,10.16
2023-04-07T01:08:51.138Z,9.86
2023-04-07T01:09:51.149Z,10.16
2023-04-07T01:10:51.139Z,9.75
2023-04-07T01:11:51.099Z,10.06
2023-04-07T01:12:51.074Z,10.06
2023-04-07T01:13:51.060Z,10.27
2023-04-07T01:14:51.120Z,9.96
2023-04-07T01:15:51.122Z,9.86
2023-04-07T01:16:52.484Z,9.75
2023-04-07T01:17:51.100Z,9.65
2023-04-07T01:18:51.067Z,9.34
2023-04-07T01:19:51.039Z,10.06
2023-04-07T01:20:50.998Z,9.34
2023-04-07T01:21:50.973Z,9.34
2023-04-07T01:22:50.960Z,9.24
2023-04-07T01:23:50.962Z,8.83
2023-04-07T01:24:50.961Z,9.03
2023-04-07T01:25:50.931Z,9.03
2023-04-07T01:26:50.904Z,9.03
2023-04-07T01:27:50.906Z,8.73
2023-04-07T01:28:50.924Z,9.03
2023-04-07T01:29:50.944Z,8.52
2023-04-07T01:30:50.852Z,8.73
2023-04-07T01:31:50.896Z,8.42
2023-04-07T01:32:50.836Z,8.42
2023-04-07T01:33:50.816Z,8.73
2023-04-07T01:34:50.833Z,8.94
2023-04-07T01:35:50.792Z,8.32
2023-04-07T01:36:50.793Z,8.01
2023-04-07T01:37:50.784Z,8.22
2023-04-07T01:38:50.732Z,7.90
2023-04-07T01:39:50.768Z,7.90
2023-04-07T01:40:50.708Z,7.70
2023-04-07T01:41:50.716Z,7.29
2023-04-07T01:42:50.695Z,7.18
2023-04-07T01:43:50.687Z,6.98
2023-04-07T01:44:50.706Z,6.98
2023-04-07T01:45:50.652Z,6.87
2023-04-07T01:46:50.697Z,6.87
2023-04-07T01:47:50.635Z,6.98
2023-04-07T01:48:50.617Z,6.87
2023-04-07T01:49:50.646Z,6.77
2023-04-07T01:50:50.599Z,6.77
2023-04-07T01:51:50.691Z,6.57
2023-04-07T01:52:50.576Z,6.36
2023-04-07T01:53:50.552Z,6.16
2023-04-07T01:54:50.557Z,6.16
2023-04-07T01:55:50.530Z,6.16
2023-04-07T01:56:50.515Z,6.67
2023-04-07T01:57:50.507Z,6.16
2023-04-07T01:58:50.480Z,6.46
2023-04-07T01:59:50.502Z,6.57
2023-04-07T02:00:50.530Z,6.16
2023-04-07T02:01:50.613Z,5.95
2023-04-07T02:02:50.508Z,5.95
2023-04-07T02:03:50.565Z,5.95
2023-04-07T02:04:50.456Z,5.74
2023-04-07T02:05:50.408Z,5.65
2023-04-07T02:06:50.374Z,5.74
2023-04-07T02:07:50.371Z,5.95
2023-04-07T02:08:50.357Z,5.54
2023-04-07T02:09:50.364Z,5.65
2023-04-07T02:10:50.336Z,5.85
2023-04-07T02:11:50.323Z,5.74
2023-04-07T02:12:50.289Z,5.44
2023-04-07T02:13:50.296Z,5.44
2023-04-07T02:14:50.334Z,5.85
2023-04-07T02:15:50.263Z,5.65
2023-04-07T02:16:50.289Z,5.65
2023-04-07T02:17:50.244Z,5.44
2023-04-07T02:18:50.212Z,5.33
2023-04-07T02:19:50.241Z,5.65
2023-04-07T02:20:50.191Z,5.54
2023-04-07T02:21:50.184Z,5.44
2023-04-07T02:22:50.172Z,5.23
2023-04-07T02:23:50.159Z,5.33
2023-04-07T02:24:50.184Z,5.54
2023-04-07T02:25:50.139Z,5.54
2023-04-07T02:26:50.112Z,5.65
2023-04-07T02:27:50.107Z,5.54
2023-04-07T02:28:50.091Z,5.23
2023-04-07T02:29:50.095Z,5.13
2023-04-07T02:30:50.060Z,5.44
2023-04-07T02:31:50.106Z,5.13
2023-04-07T02:32:50.068Z,5.13
2023-04-07T02:33:50.025Z,5.33
2023-04-07T02:34:50.052Z,5.13
2023-04-07T02:35:50.021Z,5.13
2023-04-07T02:36:49.999Z,5.23
2023-04-07T02:37:49.969Z,5.13
2023-04-07T02:38:49.959Z,5.23
2023-04-07T02:39:49.972Z,5.03
2023-04-07T02:40:49.925Z,5.23
2023-04-07T02:41:49.921Z,5.33
2023-04-07T02:42:49.910Z,5.54
2023-04-07T02:43:49.895Z,5.44
2023-04-07T02:44:49.928Z,5.74
2023-04-07T02:45:49.877Z,5.54
2023-04-07T02:46:49.854Z,5.65
2023-04-07T02:47:49.870Z,5.95
2023-04-07T02:48:49.850Z,5.23
2023-04-07T02:49:49.815Z,5.74
2023-04-07T02:50:49.798Z,5.54
2023-04-07T02:51:49.781Z,5.44
2023-04-07T02:52:49.775Z,5.44
2023-04-07T02:53:49.817Z,5.54
2023-04-07T02:54:49.761Z,5.54
2023-04-07T02:55:49.779Z,5.54
2023-04-07T02:56:49.709Z,5.44
2023-04-07T02:57:49.719Z,5.65
2023-04-07T02:58:49.704Z,6.05
2023-04-07T02:59:49.691Z,5.85
2023-04-07T03:00:50.720Z,5.95
2023-04-07T03:01:49.755Z,5.65
2023-04-07T03:02:49.737Z,5.85
2023-04-07T03:03:49.793Z,6.36
2023-04-07T03:04:49.604Z,6.57
2023-04-07T03:05:49.594Z,6.26
2023-04-07T03:06:49.580Z,6.47
2023-04-07T03:07:49.568Z,6.26
2023-04-07T03:08:49.588Z,6.16
2023-04-07T03:09:49.541Z,6.37
2023-04-07T03:10:49.518Z,6.16
2023-04-07T03:11:49.526Z,6.26
2023-04-07T03:12:49.634Z,6.47
2023-04-07T03:13:49.544Z,6.57
2023-04-07T03:14:49.466Z,6.67
2023-04-07T03:15:49.486Z,6.47
2023-04-07T03:16:49.477Z,6.57
2023-04-07T03:17:49.488Z,6.57
2023-04-07T03:18:49.445Z,6.67
2023-04-07T03:19:49.412Z,6.98
2023-04-07T03:20:49.404Z,7.09
2023-04-07T03:21:49.385Z,6.98
2023-04-07T03:22:49.362Z,6.77
2023-04-07T03:23:49.414Z,6.98
2023-04-07T03:24:49.351Z,7.29
2023-04-07T03:25:49.354Z,7.09
2023-04-07T03:26:49.321Z,6.77
2023-04-07T03:27:49.315Z,6.77
2023-04-07T03:28:49.319Z,6.77
2023-04-07T03:29:49.274Z,6.77
2023-04-07T03:30:49.308Z,6.67
2023-04-07T03:31:49.256Z,6.98
2023-04-07T03:32:49.291Z,7.09
2023-04-07T03:33:49.240Z,7.29
2023-04-07T03:34:49.221Z,7.39
2023-04-07T03:35:49.242Z,7.29
2023-04-07T03:36:49.190Z,7.39
2023-04-07T03:37:49.154Z,7.60
2023-04-07T03:38:49.202Z,7.29
2023-04-07T03:39:50.935Z,7.70
2023-04-07T03:40:49.138Z,8.12
2023-04-07T03:41:49.114Z,7.91
2023-04-07T03:42:49.107Z,7.81
2023-04-07T03:43:49.151Z,7.81
2023-04-07T03:44:49.074Z,7.91
2023-04-07T03:45:49.072Z,7.91
2023-04-07T03:46:49.049Z,7.90
2023-04-07T03:47:49.114Z,7.91
2023-04-07T03:48:49.049Z,8.22
2023-04-07T03:49:49.008Z,8.01
2023-04-07T03:50:49.020Z,8.12
2023-04-07T03:51:48.993Z,8.22
2023-04-07T03:52:49.145Z,8.22
2023-04-07T03:53:49.005Z,8.53
2023-04-07T03:54:48.957Z,8.53
2023-04-07T03:55:48.948Z,8.42
2023-04-07T03:56:48.924Z,8.32
2023-04-07T03:57:48.909Z,8.32
2023-04-07T03:58:48.954Z,8.94
2023-04-07T03:59:48.879Z,9.25
2023-04-07T04:00:48.853Z,8.94
2023-04-07T04:01:48.883Z,9.04
2023-04-07T04:02:48.902Z,8.83
2023-04-07T04:03:49.046Z,9.04
2023-04-07T04:04:48.867Z,9.14
2023-04-07T04:05:48.795Z,9.04
2023-04-07T04:06:48.779Z,9.66
2023-04-07T04:07:48.770Z,9.55
2023-04-07T04:08:48.781Z,10.27
2023-04-07T04:09:48.749Z,10.27
2023-04-07T04:10:48.733Z,10.27
2023-04-07T04:11:48.711Z,10.38
2023-04-07T04:12:48.723Z,10.17
2023-04-07T04:13:48.719Z,10.38
2023-04-07T04:14:48.684Z,10.48
2023-04-07T04:15:48.690Z,10.58
2023-04-07T04:16:48.669Z,11.30
2023-04-07T04:17:48.688Z,11.51
2023-04-07T04:18:48.660Z,11.51
2023-04-07T04:19:48.614Z,11.30
2023-04-07T04:20:48.609Z,11.30
2023-04-07T04:21:48.587Z,11.71
2023-04-07T04:22:48.583Z,12.12
2023-04-07T04:23:48.594Z,12.12
2023-04-07T04:24:48.552Z,12.53
2023-04-07T04:25:48.534Z,12.23
2023-04-07T04:26:48.529Z,12.43
2023-04-07T04:27:48.501Z,12.84
2023-04-07T04:28:48.521Z,12.74
2023-04-07T04:29:48.484Z,12.74
2023-04-07T04:30:48.484Z,13.15
2023-04-07T04:31:48.467Z,13.05
2023-04-07T04:32:48.475Z,13.25
2023-04-07T04:33:48.480Z,13.25
2023-04-07T04:34:48.424Z,13.15
2023-04-07T04:35:48.415Z,13.97
2023-04-07T04:36:48.446Z,13.87
2023-04-07T04:37:48.390Z,13.78
2023-04-07T04:38:48.392Z,13.87
2023-04-07T04:39:48.354Z,13.77
2023-04-07T04:40:48.346Z,14.07
2023-04-07T04:41:48.329Z,13.87
2023-04-07T04:42:48.321Z,14.59
2023-04-07T04:43:48.320Z,14.29
2023-04-07T04:44:48.308Z,14.39
2023-04-07T04:45:48.272Z,14.49
2023-04-07T04:46:48.306Z,14.59
2023-04-07T04:47:48.289Z,14.80
2023-04-07T04:48:48.259Z,15.31
2023-04-07T04:49:48.221Z,15.21
2023-04-07T04:50:48.207Z,15.21
2023-04-07T04:51:48.202Z,14.90
2023-04-07T04:52:48.190Z,14.80
2023-04-07T04:53:48.202Z,15.42
2023-04-07T04:54:48.156Z,15.73
2023-04-07T04:55:48.158Z,15.42
2023-04-07T04:56:48.123Z,15.73
2023-04-07T04:57:48.122Z,15.52
2023-04-07T04:58:48.153Z,15.52
2023-04-07T04:59:48.095Z,15.31
2023-04-07T05:00:48.120Z,15.52
2023-04-07T05:01:48.230Z,15.52
2023-04-07T05:02:48.289Z,15.42
2023-04-07T05:03:48.269Z,15.21
2023-04-07T05:04:48.092Z,15.62
2023-04-07T05:05:48.018Z,15.31
2023-04-07T05:06:48.008Z,15.11
2023-04-07T05:07:47.985Z,15.31
2023-04-07T05:08:48.000Z,15.42
2023-04-07T05:09:47.955Z,15.11
2023-04-07T05:10:47.948Z,15.21
2023-04-07T05:11:47.913Z,15.31
2023-04-07T05:12:47.918Z,15.11
2023-04-07T05:13:47.918Z,14.90
2023-04-07T05:14:47.885Z,14.80
2023-04-07T05:15:47.910Z,15.21
2023-04-07T05:16:47.868Z,14.70
2023-04-07T05:17:47.882Z,14.80
2023-04-07T05:18:47.857Z,14.90
2023-04-07T05:19:47.815Z,15.01
2023-04-07T05:20:47.814Z,15.11
2023-04-07T05:21:47.806Z,15.11
2023-04-07T05:22:47.781Z,14.70
2023-04-07T05:23:47.799Z,14.59
2023-04-07T05:24:47.757Z,15.01
2023-04-07T05:25:47.748Z,14.90
2023-04-07T05:26:47.738Z,15.21
2023-04-07T05:27:47.751Z,15.52
2023-04-07T05:28:47.709Z,15.62
2023-04-07T05:29:47.723Z,15.21
2023-04-07T05:30:47.672Z,15.93
2023-04-07T05:31:47.692Z,15.73
2023-04-07T05:32:47.730Z,15.93
2023-04-07T05:33:47.713Z,16.03
2023-04-07T05:34:47.752Z,16.24
2023-04-07T05:35:47.635Z,16.45
2023-04-07T05:36:47.601Z,16.35
2023-04-07T05:37:47.577Z,16.65
2023-04-07T05:38:47.618Z,16.24
2023-04-07T05:39:47.555Z,16.65
2023-04-07T05:40:47.538Z,16.45
2023-04-07T05:41:47.507Z,16.45
2023-04-07T05:42:47.520Z,16.24
2023-04-07T05:43:47.528Z,16.35
2023-04-07T05:44:47.479Z,16.14
2023-04-07T05:45:47.497Z,16.24
2023-04-07T05:46:47.464Z,15.83
2023-04-07T05:47:47.553Z,16.03
2023-04-07T05:48:47.458Z,15.93
2023-04-07T05:49:47.419Z,15.42
2023-04-07T05:50:47.432Z,15.62
2023-04-07T05:51:48.786Z,15.62
2023-04-07T05:52:47.394Z,15.83
2023-04-07T05:53:47.382Z,15.42
2023-04-07T05:54:47.360Z,15.31
2023-04-07T05:55:47.467Z,15.42
2023-04-07T05:56:47.334Z,15.52
2023-04-07T05:57:47.297Z,15.62
2023-04-07T05:58:47.325Z,15.62
2023-04-07T05:59:47.294Z,14.80
2023-04-07T06:00:47.285Z,15.11
2023-04-07T06:01:47.287Z,15.93
2023-04-07T06:02:47.452Z,16.24
2023-04-07T06:03:47.465Z,15.62
2023-04-07T06:04:47.240Z,15.62
2023-04-07T06:05:47.222Z,15.62
2023-04-07T06:06:47.204Z,15.73
2023-04-07T06:07:47.181Z,15.31
2023-04-07T06:08:47.197Z,15.93
2023-04-07T06:09:47.149Z,15.52
2023-04-07T06:10:47.145Z,15.93
2023-04-07T06:11:47.129Z,15.62
2023-04-07T06:12:47.122Z,16.14
2023-04-07T06:13:47.485Z,15.73
2023-04-07T06:14:47.096Z,15.93
2023-04-07T06:15:47.072Z,15.93
2023-04-07T06:16:47.073Z,15.73
2023-04-07T06:17:47.091Z,15.52
2023-04-07T06:18:47.110Z,15.41
2023-04-07T06:19:47.011Z,15.52
2023-04-07T06:20:47.000Z,15.92
2023-04-07T06:21:47.004Z,16.03
2023-04-07T06:22:46.984Z,16.24
2023-04-07T06:23:47.344Z,16.44
2023-04-07T06:24:46.961Z,16.13
2023-04-07T06:25:46.949Z,16.24
2023-04-07T06:26:46.944Z,15.92
2023-04-07T06:27:46.912Z,15.82
2023-04-07T06:28:46.924Z,16.33
2023-04-07T06:29:46.900Z,16.44
2023-04-07T06:30:46.890Z,16.95
2023-04-07T06:31:46.860Z,16.54
2023-04-07T06:32:46.905Z,16.65
2023-04-07T06:33:47.155Z,16.85
2023-04-07T06:34:46.875Z,16.64
2023-04-07T06:35:46.822Z,16.64
2023-04-07T06:36:46.824Z,17.26
2023-04-07T06:37:46.772Z,17.16
2023-04-07T06:38:46.773Z,17.47
2023-04-07T06:39:46.787Z,17.37
2023-04-07T06:40:46.744Z,17.37
2023-04-07T06:41:46.724Z,17.05
2023-04-07T06:42:46.718Z,16.54
2023-04-07T06:43:46.887Z,17.16
2023-04-07T06:44:46.721Z,16.95
2023-04-07T06:45:46.693Z,16.95
2023-04-07T06:46:46.654Z,17.16
2023-04-07T06:47:46.689Z,16.85
2023-04-07T06:48:46.661Z,17.57
2023-04-07T06:49:46.629Z,17.88
2023-04-07T06:50:46.615Z,17.77
2023-04-07T06:51:46.589Z,17.57
2023-04-07T06:52:46.587Z,17.98
2023-04-07T06:53:46.901Z,18.60
2023-04-07T06:54:46.535Z,18.08
2023-04-07T06:55:46.536Z,17.87
2023-04-07T06:56:46.532Z,18.49
2023-04-07T06:57:46.515Z,18.18
2023-04-07T06:58:46.530Z,18.49
2023-04-07T06:59:46.488Z,18.49
2023-04-07T07:00:46.479Z,19.72
2023-04-07T07:01:46.515Z,19.00
2023-04-07T07:02:46.624Z,19.92
2023-04-07T07:03:46.753Z,20.33
2023-04-07T07:04:46.441Z,20.23
2023-04-07T07:05:46.405Z,20.33
2023-04-07T07:06:46.396Z,21.27
2023-04-07T07:07:46.373Z,20.75
2023-04-07T07:08:46.390Z,21.06
2023-04-07T07:09:46.344Z,20.34
2023-04-07T07:10:46.339Z,19.62
2023-04-07T07:11:46.310Z,20.03
2023-04-07T07:12:46.325Z,19.92
2023-04-07T07:13:46.729Z,21.05
2023-04-07T07:14:46.298Z,21.15
2023-04-07T07:15:46.301Z,21.05
2023-04-07T07:16:46.272Z,20.96
2023-04-07T07:17:46.310Z,21.26
2023-04-07T07:18:46.340Z,20.75
2023-04-07T07:19:46.204Z,20.43
2023-04-07T07:20:46.217Z,20.13
2023-04-07T07:21:46.178Z,20.43
2023-04-07T07:22:46.165Z,20.43
2023-04-07T07:23:46.418Z,20.13
2023-04-07T07:24:46.154Z,20.75
2023-04-07T07:25:46.130Z,20.64
2023-04-07T07:26:46.131Z,20.85
2023-04-07T07:27:46.160Z,20.75
2023-04-07T07:28:46.125Z,20.43
2023-04-07T07:29:46.100Z,20.22
2023-04-07T07:30:46.073Z,20.94
2023-04-07T07:31:46.048Z,21.36
2023-04-07T07:32:46.093Z,20.94
2023-04-07T07:33:46.264Z,21.26
2023-04-07T07:34:46.033Z,21.05
2023-04-07T07:35:46.034Z,20.73
2023-04-07T07:36:45.984Z,20.32
2023-04-07T07:37:45.989Z,20.53
2023-04-07T07:38:45.992Z,21.25
2023-04-07T07:39:45.957Z,21.45
2023-04-07T07:40:45.942Z,21.04
2023-04-07T07:41:45.932Z,21.97
2023-04-07T07:42:45.918Z,21.66
2023-04-07T07:43:46.138Z,22.07
2023-04-07T07:44:45.892Z,21.97
2023-04-07T07:45:45.898Z,21.35
2023-04-07T07:46:45.887Z,22.69
2023-04-07T07:47:45.886Z,21.76
2023-04-07T07:48:45.842Z,21.76
2023-04-07T07:49:45.841Z,21.66
2023-04-07T07:50:45.833Z,21.65
2023-04-07T07:51:45.804Z,21.97
2023-04-07T07:52:45.777Z,22.28
2023-04-07T07:53:46.117Z,21.55
2023-04-07T07:54:45.752Z,22.07
2023-04-07T07:55:45.735Z,21.76
2023-04-07T07:56:45.727Z,21.03
2023-04-07T07:57:45.733Z,20.73
2023-04-07T07:58:45.722Z,20.52
2023-04-07T07:59:45.696Z,20.21
2023-04-07T08:00:45.672Z,20.01
2023-04-07T08:01:45.693Z,21.75
2023-04-07T08:02:45.712Z,20.31
2023-04-07T08:03:45.905Z,20.62
2023-04-07T08:04:45.722Z,20.11
2023-04-07T08:05:45.619Z,21.14
2023-04-07T08:06:45.586Z,20.31
2023-04-07T08:07:45.587Z,19.90
2023-04-07T08:08:45.592Z,19.39
2023-04-07T08:09:45.559Z,20.42
2023-04-07T08:10:45.592Z,21.55
2023-04-07T08:11:45.537Z,20.93
2023-04-07T08:12:45.514Z,21.55
2023-04-07T08:13:46.015Z,21.55
2023-04-07T08:14:45.481Z,20.42
2023-04-07T08:15:45.510Z,20.61
2023-04-07T08:16:45.502Z,20.92
2023-04-07T08:17:45.500Z,20.92
2023-04-07T08:18:45.615Z,20.92
2023-04-07T08:19:45.424Z,21.53
2023-04-07T08:20:45.404Z,21.84
2023-04-07T08:21:45.412Z,23.69
2023-04-07T08:22:45.387Z,23.59
2023-04-07T08:23:45.461Z,25.95
2023-04-07T08:24:45.343Z,27.19
2023-04-07T08:25:45.358Z,27.29
2023-04-07T08:26:45.322Z,26.05
2023-04-07T08:27:45.328Z,26.35
2023-04-07T08:28:45.332Z,25.84
2023-04-07T08:29:45.298Z,26.15
2023-04-07T08:30:45.261Z,27.80
2023-04-07T08:31:45.312Z,30.05
2023-04-07T08:32:45.323Z,32.10
2023-04-07T08:33:45.267Z,32.31
2023-04-07T08:34:45.244Z,34.27
2023-04-07T08:35:45.293Z,33.25
2023-04-07T08:36:45.183Z,34.68
2023-04-07T08:37:45.184Z,34.68
2023-04-07T08:38:45.195Z,33.45
2023-04-07T08:39:45.154Z,32.63
2023-04-07T08:40:45.141Z,31.60
2023-04-07T08:41:45.134Z,31.09
2023-04-07T08:42:45.115Z,31.20
2023-04-07T08:43:45.140Z,31.20
2023-04-07T08:44:45.066Z,30.99
2023-04-07T08:45:45.094Z,31.40
2023-04-07T08:46:45.090Z,31.81
2023-04-07T08:47:45.077Z,30.99
2023-04-07T08:48:45.074Z,31.29
2023-04-07T08:49:45.030Z,31.50
2023-04-07T08:50:45.008Z,31.09
2023-04-07T08:51:45.004Z,30.27
2023-04-07T08:52:44.971Z,28.73
2023-04-07T08:53:45.125Z,27.91
2023-04-07T08:54:44.951Z,26.68
2023-04-07T08:55:44.951Z,25.02
2023-04-07T08:56:44.923Z,24.51
2023-04-07T08:57:44.927Z,25.23
2023-04-07T08:58:44.924Z,26.26
2023-04-07T08:59:44.892Z,26.97
2023-04-07T09:00:44.922Z,26.35
2023-04-07T09:01:44.913Z,26.46
2023-04-07T09:02:44.921Z,26.35
2023-04-07T09:03:45.015Z,25.95
2023-04-07T09:04:44.831Z,26.35
2023-04-07T09:05:44.824Z,27.48
2023-04-07T09:06:44.826Z,27.38
2023-04-07T09:07:44.809Z,28.51
2023-04-07T09:08:44.790Z,29.64
2023-04-07T09:09:44.754Z,30.26
2023-04-07T09:10:44.760Z,29.33
2023-04-07T09:11:44.753Z,28.72
2023-04-07T09:12:44.728Z,28.72
2023-04-07T09:13:44.740Z,29.33
2023-04-07T09:14:44.706Z,30.05
2023-04-07T09:15:44.703Z,29.64
2023-04-07T09:16:44.698Z,29.23
2023-04-07T09:17:44.692Z,29.43
2023-04-07T09:18:44.666Z,28.61
2023-04-07T09:19:44.648Z,28.51
2023-04-07T09:20:44.615Z,27.59
2023-04-07T09:21:44.632Z,28.29
2023-04-07T09:22:44.589Z,30.46
2023-04-07T09:23:44.608Z,29.85
2023-04-07T09:24:44.578Z,29.94
2023-04-07T09:25:44.566Z,29.13
2023-04-07T09:26:44.535Z,29.33
2023-04-07T09:27:44.567Z,30.05
2023-04-07T09:28:44.600Z,29.13
2023-04-07T09:29:44.508Z,27.69
2023-04-07T09:30:44.478Z,26.67
2023-04-07T09:31:44.530Z,26.47
2023-04-07T09:32:44.463Z,26.88
2023-04-07T09:33:44.489Z,26.57
2023-04-07T09:34:44.431Z,24.93
2023-04-07T09:35:44.453Z,25.55
2023-04-07T09:36:44.417Z,25.55
2023-04-07T09:37:44.400Z,26.57
2023-04-07T09:38:44.388Z,25.65
2023-04-07T09:39:44.378Z,25.54
2023-04-07T09:40:44.358Z,27.18
2023-04-07T09:41:44.408Z,26.87
2023-04-07T09:42:44.347Z,26.77
2023-04-07T09:43:44.334Z,26.35
2023-04-07T09:44:44.284Z,26.97
2023-04-07T09:45:44.334Z,28.31
2023-04-07T09:46:44.413Z,31.07
2023-04-07T09:47:44.306Z,31.28
2023-04-07T09:48:44.265Z,30.87
2023-04-07T09:49:44.236Z,31.88
2023-04-07T09:50:44.228Z,32.29
2023-04-07T09:51:44.214Z,31.16
2023-04-07T09:52:44.214Z,31.88
2023-04-07T09:53:44.202Z,34.95
2023-04-07T09:54:44.158Z,37.01
2023-04-07T09:55:44.164Z,38.63
2023-04-07T09:56:44.139Z,40.78
2023-04-07T09:57:44.136Z,42.22
2023-04-07T09:58:44.162Z,44.70
2023-04-07T09:59:44.104Z,45.31
2023-04-07T10:00:44.091Z,46.01
2023-04-07T10:01:44.174Z,46.21
2023-04-07T10:02:44.149Z,47.67
2023-04-07T10:03:44.142Z,47.55
2023-04-07T10:04:44.032Z,46.42
2023-04-07T10:05:44.052Z,48.36
2023-04-07T10:06:43.986Z,50.42
2023-04-07T10:07:43.997Z,47.96
2023-04-07T10:08:44.001Z,48.26
2023-04-07T10:09:43.977Z,48.16
2023-04-07T10:10:44.203Z,48.36
2023-04-07T10:11:43.953Z,50.10
2023-04-07T10:12:43.920Z,52.77
2023-04-07T10:13:43.981Z,54.31
2023-04-07T10:14:43.912Z,55.13
2023-04-07T10:15:43.896Z,55.36
2023-04-07T10:16:43.902Z,55.36
2023-04-07T10:17:43.922Z,54.33
2023-04-07T10:18:43.881Z,54.53
2023-04-07T10:19:43.838Z,53.00
2023-04-07T10:20:43.832Z,53.82
2023-04-07T10:21:43.812Z,53.92
2023-04-07T10:22:43.794Z,53.72
2023-04-07T10:23:43.844Z,54.74
2023-04-07T10:24:43.770Z,54.33
2023-04-07T10:25:43.757Z,53.41
2023-04-07T10:26:43.734Z,52.69
2023-04-07T10:27:43.737Z,52.67
2023-04-07T10:28:43.741Z,54.31
2023-04-07T10:29:43.727Z,56.26
2023-04-07T10:30:43.709Z,56.46
2023-04-07T10:31:43.697Z,58.03
2023-04-07T10:32:43.709Z,56.15
2023-04-07T10:33:43.685Z,57.28
2023-04-07T10:34:43.637Z,55.02
2023-04-07T10:35:43.651Z,55.74
2023-04-07T10:36:43.606Z,55.13
2023-04-07T10:37:43.652Z,55.00
2023-04-07T10:38:43.574Z,56.02
2023-04-07T10:39:43.573Z,56.10
2023-04-07T10:40:43.557Z,59.48
2023-04-07T10:41:43.555Z,62.58
2023-04-07T10:42:43.535Z,61.86
2023-04-07T10:43:43.541Z,60.53
2023-04-07T10:44:43.499Z,59.81
2023-04-07T10:45:43.478Z,60.74
2023-04-07T10:46:43.525Z,60.22
2023-04-07T10:47:43.489Z,63.09
2023-04-07T10:48:43.452Z,62.68
2023-04-07T10:49:43.444Z,63.88
2023-04-07T10:50:43.402Z,64.18
2023-04-07T10:51:43.436Z,62.14
2023-04-07T10:52:43.421Z,63.17
2023-04-07T10:53:43.413Z,67.46
2023-04-07T10:54:43.373Z,66.16
2023-04-07T10:55:43.369Z,66.54
2023-04-07T10:56:43.339Z,66.03
2023-04-07T10:57:43.332Z,67.26
2023-04-07T10:58:43.364Z,69.17
2023-04-07T10:59:43.309Z,69.27
2023-04-07T11:00:43.281Z,70.33
2023-04-07T11:01:43.397Z,70.53
2023-04-07T11:02:43.364Z,70.43
2023-04-07T11:03:43.370Z,70.81
2023-04-07T11:04:43.300Z,70.61
2023-04-07T11:05:43.219Z,69.82
2023-04-07T11:06:43.212Z,69.31
2023-04-07T11:07:43.212Z,69.41
2023-04-07T11:08:43.222Z,67.87
2023-04-07T11:09:43.183Z,65.28
2023-04-07T11:10:43.146Z,62.93
2023-04-07T11:11:43.151Z,63.92
2023-04-07T11:12:43.115Z,64.54
2023-04-07T11:13:43.153Z,65.12
2023-04-07T11:14:43.099Z,69.93
2023-04-07T11:15:43.128Z,71.49
2023-04-07T11:16:43.086Z,69.65
2023-04-07T11:17:43.124Z,69.85
2023-04-07T11:18:43.082Z,71.29
2023-04-07T11:19:43.032Z,71.70
2023-04-07T11:20:44.926Z,70.88
2023-04-07T11:21:43.015Z,73.27
2023-04-07T11:22:43.000Z,71.73
2023-04-07T11:23:42.998Z,70.50
2023-04-07T11:24:42.968Z,71.73
2023-04-07T11:25:42.963Z,71.94
2023-04-07T11:26:42.937Z,71.62
2023-04-07T11:27:42.957Z,71.01
2023-04-07T11:28:42.934Z,69.38
2023-04-07T11:29:42.905Z,70.09
2023-04-07T11:30:42.881Z,69.27
2023-04-07T11:31:42.958Z,68.69
2023-04-07T11:32:42.941Z,66.54
2023-04-07T11:33:42.890Z,66.03
2023-04-07T11:34:42.837Z,65.52
2023-04-07T11:35:42.874Z,64.53
2023-04-07T11:36:42.828Z,63.68
2023-04-07T11:37:42.800Z,64.09
2023-04-07T11:38:43.030Z,63.57
2023-04-07T11:39:42.775Z,64.60
2023-04-07T11:40:42.748Z,64.29
2023-04-07T11:41:42.748Z,63.78
2023-04-07T11:42:42.749Z,63.57
2023-04-07T11:43:42.913Z,62.96
2023-04-07T11:44:42.697Z,63.78
2023-04-07T11:45:42.691Z,64.80
2023-04-07T11:46:42.696Z,65.21
2023-04-07T11:47:42.709Z,65.93
2023-04-07T11:48:42.660Z,67.16
2023-04-07T11:49:42.639Z,68.38
2023-04-07T11:50:42.648Z,68.49
2023-04-07T11:51:42.605Z,68.59
2023-04-07T11:52:42.635Z,66.13
2023-04-07T11:53:42.566Z,66.13
2023-04-07T11:54:42.586Z,65.52
2023-04-07T11:55:42.530Z,66.13
2023-04-07T11:56:42.546Z,65.86
2023-04-07T11:57:42.553Z,64.50
2023-04-07T11:58:42.513Z,65.14
2023-04-07T11:59:42.490Z,64.22
2023-04-07T12:00:42.487Z,64.42
2023-04-07T12:01:42.513Z,62.68
2023-04-07T12:02:42.650Z,63.20
2023-04-07T12:03:42.538Z,62.99
2023-04-07T12:04:42.480Z,63.20
2023-04-07T12:05:42.429Z,61.86
2023-04-07T12:06:42.412Z,62.07
2023-04-07T12:07:42.406Z,62.24
2023-04-07T12:08:42.391Z,61.52
2023-04-07T12:09:42.377Z,62.96
2023-04-07T12:10:42.363Z,63.98
2023-04-07T12:11:42.345Z,64.70
2023-04-07T12:12:42.368Z,65.01
2023-04-07T12:13:42.298Z,64.80
2023-04-07T12:14:42.303Z,64.67
2023-04-07T12:15:42.313Z,66.72
2023-04-07T12:16:42.281Z,67.23
2023-04-07T12:17:42.291Z,68.35
2023-04-07T12:18:42.255Z,67.74
2023-04-07T12:19:42.223Z,67.94
2023-04-07T12:20:42.227Z,68.97
2023-04-07T12:21:42.199Z,70.81
2023-04-07T12:22:42.234Z,69.71
2023-04-07T12:23:42.169Z,68.49
2023-04-07T12:24:42.163Z,68.38
2023-04-07T12:25:42.146Z,66.95
2023-04-07T12:26:42.149Z,69.41
2023-04-07T12:27:43.644Z,69.31
2023-04-07T12:28:42.136Z,67.46
2023-04-07T12:29:42.101Z,67.84
2023-04-07T12:30:42.095Z,69.27
2023-04-07T12:31:42.120Z,69.89
2023-04-07T12:32:42.083Z,69.99
2023-04-07T12:33:42.029Z,69.79
2023-04-07T12:34:42.038Z,71.01
2023-04-07T12:35:42.047Z,70.71
2023-04-07T12:36:42.040Z,73.06
2023-04-07T12:37:42.079Z,72.75
2023-04-07T12:38:41.981Z,73.27
2023-04-07T12:39:41.958Z,73.78
2023-04-07T12:40:41.938Z,74.08
2023-04-07T12:41:41.942Z,73.57
2023-04-07T12:42:41.974Z,73.88
2023-04-07T12:43:41.904Z,74.19
2023-04-07T12:44:41.899Z,72.75
2023-04-07T12:45:41.935Z,73.47
2023-04-07T12:46:41.870Z,73.98
2023-04-07T12:47:41.886Z,74.39
2023-04-07T12:48:41.856Z,74.08
2023-04-07T12:49:41.831Z,74.60
2023-04-07T12:50:41.824Z,72.96
2023-04-07T12:51:41.799Z,72.34
2023-04-07T12:52:41.844Z,72.72
2023-04-07T12:53:41.791Z,72.72
2023-04-07T12:54:41.761Z,72.69
2023-04-07T12:55:41.732Z,75.45
2023-04-07T12:56:41.749Z,76.16
2023-04-07T12:57:41.722Z,78.20
2023-04-07T12:58:41.744Z,78.11